Silver City, Nevada
Current Conditions -  °F | °C
As of 3:55 PM on Sunday 23 Nov 2014 (Local Time) from KCXP Reporting Station
Overcast Overcast  
Wind Chill: 42°   Ceiling: 10000
Heat Index: 45°   Visibility: 10mi
Dew Point: 23°   Wind: 5mph
Humidity: 43%   Direction: 90°E
Pressure: 30.29"   Gusts: NA
Location:  39.26°N, 119.64°W
Report Text: KCXP 232355Z AUTO 09004KT 10SM OVC100 07/M05 A3029 RMK AO2
Loading
Personal Weather Stations






























Interactive Weather Map New forecast layout! Learn more

10-Day Weather Forecast

Advertisements
Track Severe Weather on mobile